Huvudsida
METAR-TAF:

METAR-TAF

Flygplatser :

Amritsar flygplats

Amritsar, Indien

latitud: 31-38N, longitud: 074-52E, höjd: 229 m

Aktuellt väderrapport

Denna rapport gjordes för 27 minuter sedan, klockan 09:00 UTC
Vind 6 kt från väst/nordväst
Temperatur 44°C
Fuktighet 18%
Tryck 1001 hPa
Sikt: 6000 m
Få moln på en höjd av 3000 ft

METAR: VIAR 200900Z 29006KT 6000 FEW030 44/14 Q1001 NOSIG

Tid: 14:57 (09:27 UTC)

Väderprognos

Denna rapport gjordes för 1 timme och 27 minuter sedan, klockan 08:00 UTC
Prognos gäller från 20 kl. 09 UTC till 20 kl. 18 UTC
Vind 8 kt från nordväst
Sikt: 6000 m
Få moln på en höjd av 3000 ft
Blir
från 20 kl. 13 UTC till 20 kl. 15 UTC
Vind 5 kt från nord/nordost
Sikt: 5000 m
Få moln på en höjd av 10000 ft
torrdis,

TAF: VIAR 200800Z 2009/2018 31008KT 6000 FEW030 BECMG 2013/2015 02005KT 5000 HZ FEW100

Aktuella väderrapporter och prognoser från 4000 flygplatser (METAR- och TAF-rapporter).

De tillgängliga stationerna syns som gula och röda prickar på kartan.

För musen över prickarna för att se namnen på stationerna.

Klicka sedan för att få väderrapporter och prognoser.

För att ändra kartan: Klicka på de gröna knapparna med ett svart kors på för att zooma in; den gröna knappen med ett streck på för att zooma ut; eller på de gröna pilarna för angränsande kartor.


METAR-TAF: